Time;durP1;ratioP1;P1;durP2;ratioP2;P2;SDS_P1;SDS_P2;PMS_P1;PMS_P2;Temp;Humidity;BMP_temperature;BMP_pressure;BME280_temperature;BME280_humidity;BME280_pressure;Samples;Min_cycle;Max_cycle;Signal;HPM_P1;HPM_P2
2022/07/19 00:01:28;;;;;;;7.18;3.50;;;;;;;20.73;65.94;101871.22;5062044;28;20111;-76
2022/07/19 00:03:53;;;;;;;9.10;4.10;;;;;;;20.65;66.68;101869.63;5068661;28;20452;-76
2022/07/19 00:06:19;;;;;;;6.60;4.10;;;;;;;20.63;65.88;101860.66;5073262;28;20158;-75
2022/07/19 00:08:44;;;;;;;18.33;3.67;;;;;;;20.59;66.58;101878.09;5060304;28;20032;-74
2022/07/19 00:11:09;;;;;;;12.23;3.73;;;;;;;20.53;66.28;101877.09;5068552;28;20115;-73
2022/07/19 00:13:35;;;;;;;5.17;3.70;;;;;;;20.51;66.80;101864.50;5064442;28;20025;-75
2022/07/19 00:16:00;;;;;;;5.83;3.70;;;;;;;20.51;65.29;101862.59;5062248;28;20102;-75
2022/07/19 00:18:26;;;;;;;6.60;4.10;;;;;;;20.48;66.25;101865.00;5066095;28;20055;-76
2022/07/19 00:20:51;;;;;;;5.37;3.47;;;;;;;20.47;65.66;101868.84;5068363;28;20111;-76
2022/07/19 00:23:16;;;;;;;6.00;3.77;;;;;;;20.46;66.15;101861.59;5062091;28;20051;-77
2022/07/19 00:25:42;;;;;;;13.90;4.53;;;;;;;20.42;66.74;101863.13;5064012;28;20040;-76
2022/07/19 00:28:07;;;;;;;11.00;4.20;;;;;;;20.36;67.23;101864.94;5070083;28;20028;-74
2022/07/19 00:30:33;;;;;;;5.10;3.33;;;;;;;20.32;66.22;101866.50;5063354;28;20117;-75
2022/07/19 00:32:58;;;;;;;8.47;3.77;;;;;;;20.25;66.87;101864.91;5062309;28;20438;-76
2022/07/19 00:35:24;;;;;;;5.90;3.73;;;;;;;20.35;66.90;101859.63;5057390;28;20403;-76
2022/07/19 00:37:49;;;;;;;6.73;3.50;;;;;;;20.29;66.92;101858.63;5053469;28;20033;-76
2022/07/19 00:40:24;;;;;;;7.03;3.40;;;;;;;20.26;67.00;101861.03;5059106;28;20028;-76
2022/07/19 00:42:54;;;;;;;9.00;3.65;;;;;;;20.19;67.30;101860.28;5060511;28;20033;-76
2022/07/19 00:45:20;;;;;;;7.30;3.85;;;;;;;20.15;66.18;101871.03;5060237;28;20025;-76
2022/07/19 00:47:46;;;;;;;7.87;3.53;;;;;;;20.15;67.55;101864.59;5060392;28;20032;-77
2022/07/19 00:50:11;;;;;;;4.60;3.67;;;;;;;20.18;66.84;101864.97;5051717;28;20067;-77
2022/07/19 00:52:39;;;;;;;9.73;3.77;;;;;;;20.17;67.10;101859.66;5052548;28;20480;-77
2022/07/19 00:55:06;;;;;;;5.80;4.10;;;;;;;20.07;67.80;101860.22;5063968;28;20029;-77
2022/07/19 00:57:32;;;;;;;9.35;3.72;;;;;;;19.99;68.22;101860.50;5059809;28;20044;-76
2022/07/19 00:59:57;;;;;;;7.73;3.60;;;;;;;20.03;67.76;101858.09;5064728;28;20048;-74
2022/07/19 01:02:24;;;;;;;9.27;3.73;;;;;;;20.01;68.09;101860.28;5062662;28;20064;-75
2022/07/19 01:04:49;;;;;;;10.32;3.95;;;;;;;19.97;67.78;101856.28;5068511;28;20126;-76
2022/07/19 01:07:15;;;;;;;6.80;3.50;;;;;;;19.98;67.07;101855.19;5061656;28;20488;-77
2022/07/19 01:09:41;;;;;;;7.23;3.57;;;;;;;19.91;68.46;101862.78;5065955;28;20456;-76
2022/07/19 01:12:08;;;;;;;;;;;;;;;19.83;69.42;101863.94;5053688;28;20037;-77
2022/07/19 01:14:35;;;;;;;9.87;4.07;;;;;;;19.96;68.23;101860.13;5060157;28;19917;-76
2022/07/19 01:17:02;;;;;;;5.80;3.40;;;;;;;19.84;69.78;101854.50;5058827;28;20021;-75
2022/07/19 01:19:27;;;;;;;8.90;3.45;;;;;;;19.87;68.96;101854.03;5070930;28;20439;-75
2022/07/19 01:21:53;;;;;;;12.40;3.13;;;;;;;19.86;69.46;101851.50;5063260;28;20032;-75
2022/07/19 01:24:18;;;;;;;8.63;3.90;;;;;;;19.83;68.37;101843.59;5063663;28;20032;-76
2022/07/19 01:26:44;;;;;;;6.63;3.30;;;;;;;19.75;68.86;101846.72;5067657;28;20033;-76
2022/07/19 01:29:17;;;;;;;6.43;3.70;;;;;;;19.75;68.43;101852.28;5059863;28;20064;-76
2022/07/19 01:31:42;;;;;;;7.65;3.38;;;;;;;19.70;67.76;101852.13;5068664;28;20105;-77
2022/07/19 01:34:08;;;;;;;7.23;3.93;;;;;;;19.68;69.01;101857.09;5068443;28;20464;-75
2022/07/19 01:36:34;;;;;;;6.80;3.70;;;;;;;19.68;68.88;101846.78;5061134;28;20041;-76
2022/07/19 01:39:00;;;;;;;15.68;4.28;;;;;;;19.62;69.82;101850.50;5061105;28;20060;-75
2022/07/19 01:41:25;;;;;;;10.43;4.07;;;;;;;19.61;69.80;101850.72;5065759;28;20043;-75
2022/07/19 01:43:50;;;;;;;5.80;3.40;;;;;;;19.56;69.35;101848.66;5071798;28;20495;-77
2022/07/19 01:46:17;;;;;;;5.70;4.23;;;;;;;19.51;69.64;101850.41;5064754;28;20024;-76
2022/07/19 01:48:45;;;;;;;7.93;3.75;;;;;;;19.50;70.24;101848.72;5068461;28;20024;-75
2022/07/19 01:51:10;;;;;;;5.35;3.63;;;;;;;19.47;70.42;101847.25;5069021;28;20487;-76
2022/07/19 01:53:36;;;;;;;11.10;4.33;;;;;;;19.49;70.04;101852.59;5069563;28;20070;-76
2022/07/19 01:56:05;;;;;;;9.67;4.77;;;;;;;19.41;69.47;101842.63;5066765;28;20115;-76
2022/07/19 01:58:30;;;;;;;8.98;3.53;;;;;;;19.38;69.67;101845.84;5063595;28;20024;-76
2022/07/19 02:00:56;;;;;;;11.07;3.33;;;;;;;19.42;70.79;101846.25;5067915;28;20035;-75
2022/07/19 02:03:21;;;;;;;11.57;4.20;;;;;;;19.39;70.19;101836.47;5059311;28;20078;-76
2022/07/19 02:05:47;;;;;;;5.77;3.73;;;;;;;19.30;70.63;101843.38;5069070;28;20036;-76
2022/07/19 02:08:13;;;;;;;13.02;4.35;;;;;;;19.29;70.01;101835.28;5069079;28;20037;-76
2022/07/19 02:10:38;;;;;;;9.40;3.77;;;;;;;19.28;70.58;101841.91;5070864;28;20025;-74
2022/07/19 02:13:04;;;;;;;8.13;3.67;;;;;;;19.26;69.55;101844.09;5070459;28;20043;-75
2022/07/19 02:15:29;;;;;;;5.93;4.00;;;;;;;19.28;70.47;101836.34;5063160;28;20051;-76
2022/07/19 02:17:55;;;;;;;9.90;4.07;;;;;;;19.25;70.68;101831.25;5059299;28;20215;-76
2022/07/19 02:20:21;;;;;;;4.28;3.13;;;;;;;19.24;70.16;101835.97;5076190;28;20109;-74
2022/07/19 02:22:46;;;;;;;7.53;3.17;;;;;;;19.14;71.05;101832.84;5066007;28;20120;-77
2022/07/19 02:25:12;;;;;;;7.43;4.03;;;;;;;19.14;70.74;101818.09;5070446;28;20029;-74
2022/07/19 02:27:38;;;;;;;7.37;3.53;;;;;;;19.13;70.60;101825.59;5065723;28;20033;-75
2022/07/19 02:30:04;;;;;;;6.33;3.37;;;;;;;19.11;70.36;101824.13;5064099;28;20032;-76
2022/07/19 02:32:29;;;;;;;7.55;3.80;;;;;;;19.13;70.36;101819.16;5053542;28;20024;-76
2022/07/19 02:34:54;;;;;;;11.23;3.70;;;;;;;19.12;71.03;101825.81;5058312;28;20111;-77
2022/07/19 02:37:20;;;;;;;9.67;3.83;;;;;;;19.10;71.61;101836.31;5062404;28;20037;-76
2022/07/19 02:39:46;;;;;;;8.88;4.00;;;;;;;19.07;70.47;101823.72;5068338;28;20383;-74
2022/07/19 02:42:11;;;;;;;9.07;4.13;;;;;;;18.99;71.63;101823.19;5069656;28;20823;-75
2022/07/19 02:44:36;;;;;;;8.33;3.63;;;;;;;18.96;70.81;101818.94;5068227;28;20035;-75
2022/07/19 02:47:02;;;;;;;8.30;3.90;;;;;;;18.92;72.21;101814.03;5055187;28;20430;-75
2022/07/19 02:49:27;;;;;;;8.63;3.77;;;;;;;18.92;71.76;101817.69;5066314;28;20036;-75
2022/07/19 02:51:52;;;;;;;8.10;4.20;;;;;;;18.91;72.42;101812.34;5073317;28;20402;-75
2022/07/19 02:54:18;;;;;;;10.30;4.10;;;;;;;18.91;71.82;101815.13;5069989;28;20078;-76
2022/07/19 02:56:43;;;;;;;9.47;4.20;;;;;;;18.88;71.09;101807.25;5071957;28;20024;-75
2022/07/19 02:59:10;;;;;;;7.43;4.50;;;;;;;18.86;71.69;101804.72;5063978;28;20605;-75
2022/07/19 03:01:35;;;;;;;;;;;;;;;18.86;71.68;101809.41;5065769;28;20042;-75
2022/07/19 03:04:00;;;;;;;4.90;3.45;;;;;;;18.86;71.23;101809.41;5058707;28;20389;-76
2022/07/19 03:06:26;;;;;;;5.23;3.90;;;;;;;18.82;70.31;101802.59;5071202;28;20663;-77
2022/07/19 03:08:51;;;;;;;6.33;4.23;;;;;;;18.79;71.80;101800.28;5054767;28;20052;-75
2022/07/19 03:11:17;;;;;;;7.80;4.57;;;;;;;18.76;71.50;101795.19;5060659;28;20867;-76
2022/07/19 03:13:42;;;;;;;8.23;4.37;;;;;;;18.80;71.41;101796.44;5071105;28;20281;-76
2022/07/19 03:16:08;;;;;;;14.10;4.80;;;;;;;18.82;71.81;101805.38;5072331;28;20036;-75
2022/07/19 03:18:34;;;;;;;7.67;3.97;;;;;;;18.78;70.93;101802.22;5061303;28;20033;-76
2022/07/19 03:21:00;;;;;;;7.17;4.23;;;;;;;18.76;71.13;101804.38;5068762;28;20098;-74
2022/07/19 03:23:27;;;;;;;8.07;4.13;;;;;;;18.69;71.97;101800.81;5060795;28;20036;-75
2022/07/19 03:25:53;;;;;;;5.78;4.20;;;;;;;18.67;71.94;101796.56;5063171;28;20108;-76
2022/07/19 03:28:18;;;;;;;7.83;3.87;;;;;;;18.65;71.83;101795.91;5060124;28;20116;-76
2022/07/19 03:30:44;;;;;;;7.97;3.97;;;;;;;18.64;71.61;101797.88;5067774;28;20107;-76
2022/07/19 03:33:10;;;;;;;6.97;4.10;;;;;;;18.65;70.63;101801.47;5068143;28;20027;-75
2022/07/19 03:35:35;;;;;;;8.02;4.20;;;;;;;18.61;71.08;101814.97;5067971;28;20285;-74
2022/07/19 03:38:01;;;;;;;5.83;4.37;;;;;;;18.57;71.37;101804.56;5066181;28;20124;-73
2022/07/19 03:40:27;;;;;;;6.10;4.10;;;;;;;18.54;72.26;101807.75;5064648;28;20048;-76
2022/07/19 03:42:52;;;;;;;8.47;4.50;;;;;;;18.61;72.44;101801.09;5069520;28;20052;-75
2022/07/19 03:45:17;;;;;;;6.50;4.27;;;;;;;18.52;71.55;101807.16;5060514;28;20059;-75
2022/07/19 03:47:43;;;;;;;17.43;5.17;;;;;;;18.48;72.36;101800.34;5054063;28;20398;-75
2022/07/19 03:50:08;;;;;;;14.13;4.50;;;;;;;18.55;71.56;101803.91;5060192;28;20024;-75
2022/07/19 03:52:34;;;;;;;9.57;4.53;;;;;;;18.55;71.74;101798.34;5053840;28;20547;-74
2022/07/19 03:54:59;;;;;;;5.80;4.50;;;;;;;18.53;71.70;101800.53;5052393;28;20025;-76
2022/07/19 03:57:24;;;;;;;4.53;3.83;;;;;;;18.48;70.69;101797.56;5048698;28;20364;-77
2022/07/19 03:59:50;;;;;;;9.87;4.50;;;;;;;18.49;72.22;101804.81;5058393;28;20131;-75
2022/07/19 04:02:15;;;;;;;8.13;4.80;;;;;;;18.54;71.85;101805.84;5068925;28;20036;-75
2022/07/19 04:04:41;;;;;;;6.63;4.10;;;;;;;18.56;71.50;101800.91;5053257;28;20115;-76
2022/07/19 04:07:06;;;;;;;8.17;4.67;;;;;;;18.53;71.70;101806.06;5054128;28;20086;-75
2022/07/19 04:09:31;;;;;;;12.90;4.03;;;;;;;18.56;71.38;101794.53;5059283;28;20040;-73
2022/07/19 04:11:57;;;;;;;8.87;4.50;;;;;;;18.58;71.99;101800.69;5061206;28;20040;-72
2022/07/19 04:14:22;;;;;;;10.80;4.60;;;;;;;18.58;71.46;101798.75;5057194;28;20452;-73
2022/07/19 04:16:47;;;;;;;8.97;4.77;;;;;;;18.63;70.96;101798.09;5059279;28;20471;-73
2022/07/19 04:19:13;;;;;;;7.07;3.97;;;;;;;18.63;71.61;101798.09;5052404;28;20033;-74
2022/07/19 04:21:38;;;;;;;7.87;3.83;;;;;;;18.58;73.11;101787.66;5069322;28;20064;-73
2022/07/19 04:24:04;;;;;;;7.57;3.77;;;;;;;18.65;71.21;101798.69;5072324;28;20036;-74
2022/07/19 04:26:29;;;;;;;9.23;4.53;;;;;;;18.68;70.71;101792.72;5053349;28;20068;-73
2022/07/19 04:28:55;;;;;;;10.10;3.97;;;;;;;18.73;71.67;101801.22;5059077;28;20060;-73
2022/07/19 04:31:20;;;;;;;10.27;4.63;;;;;;;18.72;72.31;101800.34;5063077;28;20104;-72
2022/07/19 04:33:45;;;;;;;7.60;4.50;;;;;;;18.78;71.78;101804.16;5058054;28;20028;-71
2022/07/19 04:36:10;;;;;;;10.63;4.07;;;;;;;18.79;72.23;101803.91;5059425;28;20087;-73
2022/07/19 04:38:36;;;;;;;6.53;4.67;;;;;;;18.83;71.54;101802.38;5070345;28;20462;-72
2022/07/19 04:41:01;;;;;;;6.37;4.27;;;;;;;18.88;71.75;101805.31;5054979;28;20582;-74
2022/07/19 04:43:27;;;;;;;7.10;4.33;;;;;;;18.96;71.58;101802.25;5051261;28;20045;-73
2022/07/19 04:45:52;;;;;;;6.20;4.10;;;;;;;19.01;72.33;101807.97;5050245;28;20044;-74
2022/07/19 04:48:17;;;;;;;5.70;4.03;;;;;;;19.08;71.88;101805.13;5060136;28;20399;-71
2022/07/19 04:50:43;;;;;;;8.20;4.50;;;;;;;19.11;71.87;101805.50;5051289;28;20033;-71
2022/07/19 04:53:08;;;;;;;8.00;4.00;;;;;;;19.13;72.55;101805.28;5054054;28;20027;-72
2022/07/19 04:55:35;;;;;;;7.63;4.17;;;;;;;19.22;71.88;101803.94;5054284;28;21649;-71
2022/07/19 04:58:01;;;;;;;9.40;4.50;;;;;;;19.29;71.49;101810.25;5051794;28;20052;-73
2022/07/19 05:00:26;;;;;;;5.83;4.20;;;;;;;19.37;70.87;101807.19;5056065;28;20092;-72
2022/07/19 05:02:56;;;;;;;7.67;4.37;;;;;;;19.45;70.69;101809.66;5055073;28;20039;-73
2022/07/19 05:05:22;;;;;;;7.45;4.00;;;;;;;19.48;71.79;101800.88;5058535;28;20036;-73
2022/07/19 05:07:47;;;;;;;6.35;4.57;;;;;;;19.60;71.14;101801.78;5063517;28;20055;-73
2022/07/19 05:10:13;;;;;;;9.03;4.20;;;;;;;19.74;70.88;101803.31;5058496;28;20033;-73
2022/07/19 05:12:39;;;;;;;7.60;4.47;;;;;;;19.81;70.83;101798.50;5055461;28;20052;-72
2022/07/19 05:15:05;;;;;;;10.00;5.05;;;;;;;19.92;70.18;101792.16;5051038;28;20029;-73
2022/07/19 05:17:31;;;;;;;;;;;;;;;20.03;70.60;101796.91;5049225;28;20037;-72
2022/07/19 05:19:56;;;;;;;15.43;5.28;;;;;;;20.21;69.32;101788.53;5051701;28;19976;-72
2022/07/19 05:22:24;;;;;;;11.17;5.60;;;;;;;20.28;68.64;101786.50;5052473;28;20059;-73
2022/07/19 05:24:49;;;;;;;43.70;7.40;;;;;;;20.63;68.98;101801.34;5051839;28;20064;-73
2022/07/19 05:27:15;;;;;;;360.67;31.17;;;;;;;21.33;65.54;101795.56;5047193;28;20064;-73
2022/07/19 05:29:40;;;;;;;261.27;24.97;;;;;;;22.20;61.56;101795.19;5050144;28;20037;-73
2022/07/19 05:32:06;;;;;;;42.60;9.90;;;;;;;23.00;59.52;101791.00;5052127;28;20420;-74
2022/07/19 05:34:31;;;;;;;14.20;6.90;;;;;;;23.67;56.33;101784.19;5055619;28;20041;-73
2022/07/19 05:36:56;;;;;;;18.13;7.40;;;;;;;24.36;53.72;101790.88;5045840;28;20075;-73
2022/07/19 05:39:21;;;;;;;15.13;7.13;;;;;;;24.77;52.39;101788.22;5065117;28;20068;-72
2022/07/19 05:41:47;;;;;;;14.57;7.80;;;;;;;25.33;50.50;101800.69;5047992;28;20047;-73
2022/07/19 05:44:12;;;;;;;15.40;7.47;;;;;;;25.96;48.42;101792.91;5048809;28;20037;-73
2022/07/19 05:46:40;;;;;;;16.33;7.43;;;;;;;26.20;47.50;101790.44;5062349;28;20340;-74
2022/07/19 05:49:07;;;;;;;12.43;7.68;;;;;;;26.30;48.57;101798.91;5068269;28;20119;-74
2022/07/19 05:51:32;;;;;;;13.20;7.80;;;;;;;26.36;47.59;101804.22;5056240;28;20037;-73
2022/07/19 05:54:00;;;;;;;10.20;7.47;;;;;;;26.62;46.65;101794.75;5048856;28;20033;-75
2022/07/19 05:56:25;;;;;;;18.15;9.25;;;;;;;27.14;43.58;101795.28;5048303;28;20033;-73
2022/07/19 05:58:51;;;;;;;17.92;7.60;;;;;;;27.34;44.87;101795.28;5062887;28;20042;-72
2022/07/19 06:01:19;;;;;;;;;;;;;;;27.94;42.66;101795.09;5050586;28;20052;-73
2022/07/19 06:03:46;;;;;;;36.17;9.95;;;;;;;27.98;42.72;101800.97;5047788;28;20345;-73
2022/07/19 06:06:12;;;;;;;619.85;42.38;;;;;;;28.24;42.77;101794.94;5049708;28;20056;-73
2022/07/19 06:08:38;;;;;;;54.83;10.50;;;;;;;28.43;41.25;101795.94;5066848;28;20071;-74
2022/07/19 06:11:03;;;;;;;;;;;;;;;28.61;41.52;101786.81;5057071;28;20033;-73
2022/07/19 06:13:28;;;;;;;32.93;8.30;;;;;;;29.04;40.04;101796.34;5057072;28;20444;-74
2022/07/19 06:15:54;;;;;;;;;;;;;;;29.42;37.30;101789.72;5068368;28;20647;-74
2022/07/19 06:18:19;;;;;;;13.83;7.70;;;;;;;29.10;39.28;101797.97;5053197;28;19921;-73
2022/07/19 06:20:45;;;;;;;;;;;;;;;29.39;38.68;101791.16;5054190;28;20383;-73
2022/07/19 06:23:10;;;;;;;12.05;7.78;;;;;;;29.33;41.22;101789.53;5051870;28;19952;-73
2022/07/19 06:25:35;;;;;;;13.90;7.70;;;;;;;29.63;39.17;101785.56;5061940;28;20056;-73
2022/07/19 06:28:01;;;;;;;20.33;7.63;;;;;;;30.05;37.40;101788.41;5064672;28;20056;-74
2022/07/19 06:30:26;;;;;;;21.15;8.35;;;;;;;30.34;37.10;101798.47;5053308;28;20058;-74
2022/07/19 06:32:52;;;;;;;10.95;8.10;;;;;;;30.51;36.99;101797.94;5048112;28;20463;-73
2022/07/19 06:35:17;;;;;;;16.88;8.55;;;;;;;30.27;37.25;101802.81;5059776;28;20036;-74
2022/07/19 06:37:42;;;;;;;15.93;8.30;;;;;;;30.32;37.41;101795.13;5061773;28;20029;-73
2022/07/19 06:40:08;;;;;;;21.15;8.48;;;;;;;30.26;37.13;101806.78;5056055;28;20024;-74
2022/07/19 06:42:34;;;;;;;15.95;7.30;;;;;;;30.66;36.69;101792.03;5057074;28;20369;-74
2022/07/19 06:45:01;;;;;;;12.70;7.70;;;;;;;30.47;36.77;101797.69;5052751;28;20029;-74
2022/07/19 06:47:30;;;;;;;17.90;7.82;;;;;;;31.16;35.07;101800.50;5052542;28;20033;-73
2022/07/19 06:49:55;;;;;;;17.42;7.60;;;;;;;30.72;36.70;101800.16;5051847;28;20369;-74
2022/07/19 06:52:21;;;;;;;12.68;8.30;;;;;;;30.85;36.46;101798.53;5057110;28;20036;-74
2022/07/19 06:54:46;;;;;;;13.63;7.93;;;;;;;31.24;36.34;101793.31;5049158;28;20204;-74
2022/07/19 06:57:12;;;;;;;20.88;8.20;;;;;;;31.57;34.35;101795.78;5057751;28;20052;-74
2022/07/19 06:59:37;;;;;;;16.60;7.78;;;;;;;30.85;36.99;101787.19;5059956;28;20036;-74
2022/07/19 07:02:04;;;;;;;20.42;8.32;;;;;;;31.06;37.58;101792.19;5059913;28;20117;-74
2022/07/19 07:04:30;;;;;;;13.60;7.65;;;;;;;31.23;36.10;101795.31;5064979;28;20031;-74
2022/07/19 07:06:55;;;;;;;13.38;8.02;;;;;;;31.20;34.62;101795.13;5047580;28;20021;-74
2022/07/19 07:09:20;;;;;;;16.30;7.72;;;;;;;31.20;36.85;101797.94;5056431;28;20059;-74
2022/07/19 07:11:46;;;;;;;14.52;7.80;;;;;;;31.41;36.07;101791.56;5061924;28;20109;-74
2022/07/19 07:14:11;;;;;;;17.75;7.65;;;;;;;31.66;33.68;101788.22;5058340;28;20071;-74
2022/07/19 07:16:36;;;;;;;21.52;8.15;;;;;;;31.40;34.70;101789.88;5053903;28;20035;-74
2022/07/19 07:19:02;;;;;;;17.85;7.40;;;;;;;31.37;36.10;101781.19;5065139;28;20033;-74
2022/07/19 07:21:27;;;;;;;19.25;7.00;;;;;;;31.52;35.34;101776.03;5058815;28;20119;-74
2022/07/19 07:23:52;;;;;;;16.48;6.68;;;;;;;31.90;34.75;101780.34;5054582;28;20032;-74
2022/07/19 07:26:17;;;;;;;19.67;7.20;;;;;;;31.90;34.25;101785.22;5058644;28;20303;-74
2022/07/19 07:28:43;;;;;;;11.98;6.88;;;;;;;31.68;35.83;101785.91;5051659;28;20028;-74
2022/07/19 07:31:08;;;;;;;18.80;8.02;;;;;;;31.51;33.93;101782.00;5055875;28;20111;-73
2022/07/19 07:33:33;;;;;;;16.67;7.30;;;;;;;31.49;35.20;101776.69;5052897;28;20021;-74
2022/07/19 07:35:59;;;;;;;16.23;7.35;;;;;;;31.64;35.22;101776.34;5051449;28;20098;-74
2022/07/19 07:38:24;;;;;;;20.55;7.57;;;;;;;32.02;35.11;101779.81;5062426;28;22219;-74
2022/07/19 07:40:49;;;;;;;14.25;7.40;;;;;;;31.88;35.56;101777.00;5068035;28;20040;-72
2022/07/19 07:43:15;;;;;;;12.68;7.10;;;;;;;32.14;34.90;101777.28;5053492;28;20108;-74
2022/07/19 07:45:40;;;;;;;15.60;7.50;;;;;;;32.00;35.51;101771.63;5052102;28;22009;-73
2022/07/19 07:48:05;;;;;;;12.73;7.03;;;;;;;31.96;35.49;101778.25;5064506;28;20032;-74
2022/07/19 07:50:31;;;;;;;;;;;;;;;31.90;35.67;101785.22;5065090;28;20040;-74
2022/07/19 07:52:56;;;;;;;13.77;6.47;;;;;;;31.55;36.46;101783.06;5068551;28;19916;-74
2022/07/19 07:55:21;;;;;;;;;;;;;;;31.64;35.89;101782.00;5064820;28;20177;-73
2022/07/19 07:57:47;;;;;;;14.73;7.17;;;;;;;31.47;36.43;101776.13;5062680;28;19924;-73
2022/07/19 08:00:13;;;;;;;21.58;6.10;;;;;;;31.58;36.92;101783.28;5056446;28;20032;-73
2022/07/19 08:02:45;;;;;;;11.88;5.72;;;;;;;31.72;36.32;101780.44;5058181;28;20486;-73
2022/07/19 08:05:11;;;;;;;20.67;5.78;;;;;;;31.66;36.22;101776.03;5065142;28;20036;-73
2022/07/19 08:07:37;;;;;;;;;;;;;;;31.72;36.58;101774.78;5056477;28;20028;-73
2022/07/19 08:10:07;;;;;;;9.57;5.85;;;;;;;31.62;36.24;101784.34;5067875;28;19984;-73
2022/07/19 08:12:33;;;;;;;17.73;6.20;;;;;;;31.73;35.48;101776.47;5052106;28;20028;-73
2022/07/19 08:14:58;;;;;;;;;;;;;;;31.51;36.76;101768.69;5049948;28;20039;-73
2022/07/19 08:17:24;;;;;;;10.43;3.80;;;;;;;31.89;37.17;101764.50;5058418;28;19916;-73
2022/07/19 08:19:49;;;;;;;19.10;4.60;;;;;;;31.47;36.47;101764.81;5048936;28;20083;-72
2022/07/19 08:22:15;;;;;;;16.33;4.20;;;;;;;31.39;37.10;101759.03;5060292;28;20115;-73
2022/07/19 08:24:41;;;;;;;19.45;4.47;;;;;;;31.50;35.17;101767.03;5049231;28;20025;-74
2022/07/19 08:27:06;;;;;;;;;;;;;;;31.58;36.60;101765.44;5056265;28;20511;-72
2022/07/19 08:29:31;;;;;;;12.40;4.53;;;;;;;31.51;35.73;101756.50;5053014;28;19924;-73
2022/07/19 08:31:57;;;;;;;;;;;;;;;31.68;36.03;101766.06;5061597;28;20115;-73
2022/07/19 08:34:22;;;;;;;13.07;3.78;;;;;;;31.64;33.77;101755.69;5048733;28;19922;-75
2022/07/19 08:36:47;;;;;;;;;;;;;;;31.68;34.41;101756.75;5058149;28;20037;-75
2022/07/19 08:39:13;;;;;;;8.90;3.27;;;;;;;31.74;33.82;101739.31;5048875;28;19923;-75
2022/07/19 08:41:38;;;;;;;;;;;;;;;31.93;35.18;101750.53;5055042;28;20106;-74
2022/07/19 08:44:07;;;;;;;13.48;3.55;;;;;;;31.92;35.28;101749.72;5068642;28;19921;-74
2022/07/19 08:46:32;;;;;;;18.48;4.53;;;;;;;31.93;33.84;101744.84;5050090;28;20025;-74
2022/07/19 08:48:58;;;;;;;;;;;;;;;31.92;34.82;101740.34;5048402;28;20091;-72
2022/07/19 08:51:25;;;;;;;10.25;4.45;;;;;;;31.74;35.23;101738.50;5049769;28;20016;-73
2022/07/19 08:53:51;;;;;;;8.43;3.55;;;;;;;31.80;35.76;101738.06;5049298;28;20060;-73
2022/07/19 08:59:02;;;;;;;12.32;3.33;;;;;;;31.99;34.53;101735.06;5063847;28;19939;-73
2022/07/19 09:01:27;;;;;;;;;;;;;;;32.09;35.67;101727.19;5041615;28;20021;-74
2022/07/19 09:04:11;;;;;;;6.83;3.50;;;;;;;32.22;34.50;101731.97;5062524;28;19916;-73
2022/07/19 09:06:58;;;;;;;13.50;3.88;;;;;;;32.13;33.99;101731.06;5055991;28;20633;-72
2022/07/19 09:09:28;;;;;;;10.25;3.22;;;;;;;32.26;35.22;101740.72;5051838;28;20086;-73
2022/07/19 09:11:55;;;;;;;7.63;3.10;;;;;;;32.43;36.26;101735.22;5053796;28;20091;-74
2022/07/19 09:14:26;;;;;;;10.38;3.58;;;;;;;32.64;35.29;101733.53;5042842;28;20059;-75
2022/07/19 09:17:04;;;;;;;7.32;3.45;;;;;;;32.68;32.74;101726.03;5056455;28;20075;-73
2022/07/19 09:19:33;;;;;;;8.63;3.65;;;;;;;32.87;33.72;101724.69;5069888;28;20516;-74
2022/07/19 09:22:02;;;;;;;9.88;2.88;;;;;;;33.08;33.58;101725.00;5063699;28;20029;-73
2022/07/19 09:24:30;;;;;;;13.15;3.05;;;;;;;33.31;33.89;101724.63;5049636;28;20107;-74
2022/07/19 09:26:58;;;;;;;15.68;3.00;;;;;;;33.12;33.60;101723.19;5048644;28;20097;-74
2022/07/19 09:29:25;;;;;;;10.05;2.70;;;;;;;33.47;32.56;101722.19;5049902;28;20148;-73
2022/07/19 09:32:24;;;;;;;9.55;2.78;;;;;;;33.60;32.21;101727.75;5049662;28;20074;-74
2022/07/19 09:34:53;;;;;;;7.32;2.70;;;;;;;33.59;31.73;101730.91;5027313;28;20044;-73
2022/07/19 09:37:21;;;;;;;7.20;2.88;;;;;;;33.71;32.69;101722.59;5048122;28;20033;-73
2022/07/19 09:39:50;;;;;;;12.57;3.30;;;;;;;34.08;31.84;101722.88;5049503;28;20199;-74
2022/07/19 09:42:34;;;;;;;13.73;3.13;;;;;;;34.01;32.21;101722.53;5049410;28;20040;-74
2022/07/19 09:45:02;;;;;;;15.25;3.28;;;;;;;34.06;31.85;101718.69;5050127;28;20036;-73
2022/07/19 09:47:37;;;;;;;18.67;3.63;;;;;;;34.28;32.50;101724.25;5049604;28;20574;-72
2022/07/19 09:50:06;;;;;;;14.57;3.33;;;;;;;34.27;31.06;101722.56;5048052;28;20150;-73
2022/07/19 09:52:33;;;;;;;10.23;2.90;;;;;;;34.08;32.88;101716.34;5063622;28;20111;-75
2022/07/19 09:55:01;;;;;;;7.90;3.08;;;;;;;33.95;32.73;101723.00;5069807;28;20094;-74
2022/07/19 09:57:28;;;;;;;11.45;3.22;;;;;;;34.37;31.70;101719.41;5069630;28;20378;-75
2022/07/19 09:59:57;;;;;;;5.75;3.05;;;;;;;34.44;31.23;101722.56;5069434;28;20055;-74
2022/07/19 10:02:23;;;;;;;9.50;2.75;;;;;;;34.79;30.20;101715.69;5069605;28;20413;-75
2022/07/19 10:04:50;;;;;;;6.35;2.80;;;;;;;34.76;30.53;101711.53;5069954;28;20479;-74
2022/07/19 10:07:17;;;;;;;6.43;2.90;;;;;;;34.73;29.64;101719.88;5069320;28;20024;-75
2022/07/19 10:09:47;;;;;;;12.88;3.30;;;;;;;34.94;31.42;101709.47;5047922;28;20499;-72
2022/07/19 10:12:13;;;;;;;7.47;2.80;;;;;;;35.13;30.75;101712.75;5027942;28;20034;-74
2022/07/19 10:14:38;;;;;;;9.63;3.00;;;;;;;35.20;30.72;101701.69;5031006;28;20111;-73
2022/07/19 10:17:31;;;;;;;9.25;3.42;;;;;;;35.43;30.65;101708.81;5040863;28;20037;-75
2022/07/19 10:19:58;;;;;;;9.20;2.60;;;;;;;35.61;29.94;101696.13;5027661;28;20478;-73
2022/07/19 10:22:25;;;;;;;16.23;3.30;;;;;;;35.79;30.08;101695.69;5037473;28;20029;-74
2022/07/19 10:24:53;;;;;;;21.73;3.33;;;;;;;35.73;29.50;101687.69;5036539;28;20044;-74
2022/07/19 10:27:35;;;;;;;7.55;3.00;;;;;;;35.63;29.25;101696.63;5041291;28;20420;-74
2022/07/19 10:30:07;;;;;;;15.90;2.78;;;;;;;35.81;29.08;101698.22;5044630;28;20610;-74
2022/07/19 10:32:32;;;;;;;12.88;2.80;;;;;;;35.95;30.77;101693.09;5041705;28;20432;-73
2022/07/19 10:35:27;;;;;;;8.65;2.80;;;;;;;35.98;29.21;101696.09;5036389;28;20037;-74
2022/07/19 10:38:02;;;;;;;8.45;2.72;;;;;;;35.95;29.37;101688.22;5027681;28;20033;-73
2022/07/19 10:40:47;;;;;;;6.68;2.53;;;;;;;35.99;27.37;101686.34;5042062;28;20442;-74
2022/07/19 10:43:13;;;;;;;8.75;3.13;;;;;;;35.67;28.69;101691.88;5033262;28;20136;-73
2022/07/19 10:46:00;;;;;;;14.98;3.53;;;;;;;36.14;28.32;101682.00;5047100;28;20048;-73
2022/07/19 10:48:59;;;;;;;13.25;3.05;;;;;;;36.64;27.74;101671.38;5040906;28;20040;-75
2022/07/19 10:51:33;;;;;;;11.45;2.60;;;;;;;36.37;27.22;101680.50;5014801;28;20037;-74
2022/07/19 10:54:02;;;;;;;6.15;2.95;;;;;;;36.40;26.44;101674.09;5028740;28;20134;-74
2022/07/19 10:56:30;;;;;;;11.85;3.00;;;;;;;36.55;27.46;101670.59;5028308;28;20033;-73
2022/07/19 10:59:02;;;;;;;10.60;2.90;;;;;;;36.71;26.58;101681.00;5028208;28;20036;-74
2022/07/19 11:01:30;;;;;;;8.70;3.33;;;;;;;36.60;26.22;101664.66;5037806;28;20111;-74
2022/07/19 11:04:28;;;;;;;9.05;2.28;;;;;;;36.67;26.97;101667.81;5036316;28;20032;-74
2022/07/19 11:07:19;;;;;;;6.72;2.88;;;;;;;36.83;25.91;101657.38;5027246;28;20148;-74
2022/07/19 11:09:48;;;;;;;10.80;2.90;;;;;;;37.16;26.74;101663.88;5031161;28;20431;-75
2022/07/19 11:12:22;;;;;;;6.53;2.65;;;;;;;37.22;25.56;101659.59;5038748;28;20032;-76
2022/07/19 11:14:47;;;;;;;10.68;2.88;;;;;;;37.59;25.58;101655.56;5031653;28;20404;-76
2022/07/19 11:17:12;;;;;;;9.35;3.35;;;;;;;37.43;25.64;101658.31;5031008;28;20055;-74
2022/07/19 11:19:56;;;;;;;8.75;2.80;;;;;;;37.50;25.80;101652.00;5032574;28;20026;-75
2022/07/19 11:22:21;;;;;;;8.77;2.63;;;;;;;37.50;25.52;101643.41;5032280;28;20440;-74
2022/07/19 11:24:47;;;;;;;6.75;2.20;;;;;;;37.55;24.37;101646.06;5031253;28;20034;-75
2022/07/19 11:27:12;;;;;;;12.02;3.03;;;;;;;37.87;24.73;101653.63;5046880;28;20083;-74